Aeroporto :
LOGIN :

Iscrizione | Disclaimer

   EN    FR    IT 

 










Sommario :    VFR   VFR Marginale   IFR   IFR Intensivo   IFR Molto Intensivo
Visibilità : 
Base nubi : 
>= 8 km
>= 3000ft
5 / 8 km
1000 / 3000 ft
1500m / 5 km
500 / 1000 ft
800 / 1500m
200 / 500 ft
< 800m
< 200 ft
Simboli :   Temporali  Nebbia  Neve Forte  Precipitazioni Forti  Vento > 20 kt
SIGMETs :   Varie  Temporali  Ghiacco  Turbolenza  Onda orograficha  Ceneri Vulcaniche






- Altitudine del aeroporto : 781 ft
- Codice IATA : SKP


LWSK - Skopje

ULTIMO METAR :
  • 240450Z VRB02KT 3000 BR SCT003 BKN013 10/10 Q1007 NOSIG

METARs OBSOLETI :
  • 240420Z 35003KT 4000 BR FEW002 BKN013 10/10 Q1007 NOSIG
  • 240320Z VRB01KT 2000 0600W R34/P2000N BCFG FEW002 BKN013 08/08 Q1006 NOSIG
  • 240250Z VRB01KT 5000 2000W BR FEW002 SCT023 08/08 Q1006 NOSIG
  • 240220Z 14003KT 8000 2000W BR FEW002 08/08 Q1006 NOSIG
  • 240150Z 05003KT 020V090 6000 FEW004 SCT020 09/09 Q1006 NOSIG
  • 240120Z VRB01KT 9999 FEW005 BKN060 09/09 Q1006 NOSIG
  • 240050Z 34003KT 270V010 9000 FEW005 09/09 Q1006 NOSIG
  • 240020Z 05003KT 020V080 8000 FEW020 10/10 Q1006 NOSIG

TAF TAF LWSK
Valido dal 24 a 03 ore il 25 a 03 ore UTC


240205Z 2403/2503 VRB02KT 9999 SCT015
TEMPO 2403/2407 3000 BR SCT005
PROB40
TEMPO 2403/2406 0800 FG BKN003
BECMG 2408/2410 FEW070



MetMap, La meteo Aeronautica in un colpo d'occhio ! - Copyright ORBIFLY Dicembre 2007 - Disclaimer

ORBIFLY MET'MAP TEAM :

Programmazione e sviluppo : Alexandra Zaïnal
Concezione : Baudouin d'Aumeries
Supporto tecnico e logistico : Manuel Goepfert
Aiuto : Marc-Olivier Méhu
Aiuto per la traduzione : Arnaldo La Scala




FONTI E CREDITI :

   NOAA